createdAt,value
2018-07-24T00:00:45.056Z,1012.80
2018-07-24T00:01:45.120Z,1012.76
2018-07-24T00:02:45.184Z,1012.79
2018-07-24T00:03:45.248Z,1012.78
2018-07-24T00:04:45.317Z,1012.75
2018-07-24T00:05:45.397Z,1012.77
2018-07-24T00:06:45.448Z,1012.75
2018-07-24T00:07:45.516Z,1012.73
2018-07-24T00:08:45.592Z,1012.70
2018-07-24T00:09:45.648Z,1012.70
2018-07-24T00:10:45.720Z,1012.72
2018-07-24T00:11:45.792Z,1012.70
2018-07-24T00:12:45.848Z,1012.71
2018-07-24T00:13:45.917Z,1012.72
2018-07-24T00:14:45.980Z,1012.76
2018-07-24T00:15:46.056Z,1012.77
2018-07-24T00:16:46.121Z,1012.74
2018-07-24T00:17:46.184Z,1012.76
2018-07-24T00:18:46.249Z,1012.77
2018-07-24T00:19:46.312Z,1012.74
2018-07-24T00:20:46.388Z,1012.79
2018-07-24T00:21:46.453Z,1012.79
2018-07-24T00:22:46.513Z,1012.78
2018-07-24T00:23:46.585Z,1012.72
2018-07-24T00:24:46.653Z,1012.77
2018-07-24T00:25:46.720Z,1012.72
2018-07-24T00:26:46.789Z,1012.75
2018-07-24T00:27:46.845Z,1012.69
2018-07-24T00:28:46.913Z,1012.71
2018-07-24T00:29:46.981Z,1012.69
2018-07-24T00:30:47.053Z,1012.69
2018-07-24T00:31:47.121Z,1012.71
2018-07-24T00:32:47.180Z,1012.68
2018-07-24T00:33:47.245Z,1012.68
2018-07-24T00:34:47.313Z,1012.64
2018-07-24T00:35:47.533Z,1012.68
2018-07-24T00:36:47.449Z,1012.68
2018-07-24T00:37:47.513Z,1012.68
2018-07-24T00:38:47.576Z,1012.67
2018-07-24T00:39:47.645Z,1012.69
2018-07-24T00:40:47.717Z,1012.65
2018-07-24T00:41:47.793Z,1012.67
2018-07-24T00:42:47.845Z,1012.66
2018-07-24T00:43:47.909Z,1012.63
2018-07-24T00:44:47.981Z,1012.65
2018-07-24T00:45:48.050Z,1012.57
2018-07-24T00:46:48.117Z,1012.59
2018-07-24T00:47:48.177Z,1012.60
2018-07-24T00:48:48.241Z,1012.60
2018-07-24T00:49:48.309Z,1012.59
2018-07-24T00:50:48.494Z,1012.58
2018-07-24T00:51:48.442Z,1012.53
2018-07-24T00:52:48.509Z,1012.55
2018-07-24T00:53:48.578Z,1012.55
2018-07-24T00:54:48.642Z,1012.53
2018-07-24T00:55:48.722Z,1012.53
2018-07-24T00:56:48.802Z,1012.54
2018-07-24T00:57:48.846Z,1012.55
2018-07-24T00:58:48.906Z,1012.54
2018-07-24T00:59:48.981Z,1012.55
2018-07-24T01:00:49.051Z,1012.53
2018-07-24T01:01:49.117Z,1012.53
2018-07-24T01:02:49.178Z,1012.51
2018-07-24T01:03:49.238Z,1012.50
2018-07-24T01:04:49.306Z,1012.46
2018-07-24T01:05:49.378Z,1012.49
2018-07-24T01:06:49.442Z,1012.47
2018-07-24T01:07:49.502Z,1012.47
2018-07-24T01:08:49.574Z,1012.45
2018-07-24T01:09:49.638Z,1012.44
2018-07-24T01:10:49.715Z,1012.45
2018-07-24T01:11:49.810Z,1012.45
2018-07-24T01:12:49.835Z,1012.46
2018-07-24T01:13:49.906Z,1012.47
2018-07-24T01:14:49.971Z,1012.44
2018-07-24T01:15:50.045Z,1012.45
2018-07-24T01:16:50.107Z,1012.44
2018-07-24T01:17:50.166Z,1012.46
2018-07-24T01:18:50.234Z,1012.45
2018-07-24T01:19:50.299Z,1012.45
2018-07-24T01:20:50.388Z,1012.47
2018-07-24T01:21:50.439Z,1012.44
2018-07-24T01:22:50.500Z,1012.45
2018-07-24T01:23:50.567Z,1012.42
2018-07-24T01:24:50.631Z,1012.44
2018-07-24T01:25:50.711Z,1012.46
2018-07-24T01:26:50.771Z,1012.47
2018-07-24T01:27:50.831Z,1012.44
2018-07-24T01:28:50.896Z,1012.44
2018-07-24T01:29:50.964Z,1012.46
2018-07-24T01:30:51.035Z,1012.48
2018-07-24T01:31:51.104Z,1012.47
2018-07-24T01:32:51.161Z,1012.45
2018-07-24T01:33:51.227Z,1012.41
2018-07-24T01:34:51.295Z,1012.40
2018-07-24T01:35:51.368Z,1012.39
2018-07-24T01:36:51.431Z,1012.42
2018-07-24T01:37:51.500Z,1012.40
2018-07-24T01:38:51.560Z,1012.36
2018-07-24T01:39:51.627Z,1012.38
2018-07-24T01:40:51.700Z,1012.41
2018-07-24T01:41:51.764Z,1012.41
2018-07-24T01:42:51.824Z,1012.39
2018-07-24T01:43:51.888Z,1012.41
2018-07-24T01:44:51.960Z,1012.39
2018-07-24T01:45:52.028Z,1012.36
2018-07-24T01:46:52.097Z,1012.41
2018-07-24T01:47:52.156Z,1012.36
2018-07-24T01:48:52.220Z,1012.42
2018-07-24T01:49:52.289Z,1012.40
2018-07-24T01:50:52.360Z,1012.38
2018-07-24T01:51:52.428Z,1012.39
2018-07-24T01:52:52.487Z,1012.40
2018-07-24T01:53:52.552Z,1012.41
2018-07-24T01:54:52.616Z,1012.38
2018-07-24T01:55:52.692Z,1012.38
2018-07-24T01:56:52.759Z,1012.35
2018-07-24T01:57:52.816Z,1012.34
2018-07-24T01:58:52.884Z,1012.34
2018-07-24T01:59:52.948Z,1012.33
2018-07-24T02:00:53.021Z,1012.34
2018-07-24T02:01:53.092Z,1012.33
2018-07-24T02:02:53.148Z,1012.29
2018-07-24T02:03:53.212Z,1012.30
2018-07-24T02:04:53.284Z,1012.30
2018-07-24T02:05:53.352Z,1012.26
2018-07-24T02:06:53.416Z,1012.28
2018-07-24T02:07:53.477Z,1012.30
2018-07-24T02:08:53.545Z,1012.26
2018-07-24T02:09:53.609Z,1012.25
2018-07-24T02:10:53.681Z,1012.27
2018-07-24T02:11:53.754Z,1012.22
2018-07-24T02:12:53.810Z,1012.23
2018-07-24T02:13:53.873Z,1012.24
2018-07-24T02:14:53.941Z,1012.25
2018-07-24T02:15:54.017Z,1012.24
2018-07-24T02:16:54.077Z,1012.23
2018-07-24T02:17:54.137Z,1012.22
2018-07-24T02:18:54.205Z,1012.29
2018-07-24T02:19:54.295Z,1012.29
2018-07-24T02:20:54.341Z,1012.28
2018-07-24T02:21:54.410Z,1012.28
2018-07-24T02:22:54.473Z,1012.29
2018-07-24T02:23:54.534Z,1012.30
2018-07-24T02:24:54.602Z,1012.31
2018-07-24T02:25:54.769Z,1012.32
2018-07-24T02:26:54.738Z,1012.29
2018-07-24T02:27:54.797Z,1012.30
2018-07-24T02:28:54.866Z,1012.27
2018-07-24T02:29:54.933Z,1012.26
2018-07-24T02:30:55.006Z,1012.25
2018-07-24T02:31:55.111Z,1012.29
2018-07-24T02:32:55.138Z,1012.24
2018-07-24T02:33:55.199Z,1012.28
2018-07-24T02:34:55.262Z,1012.27
2018-07-24T02:35:55.506Z,1012.25
2018-07-24T02:36:55.394Z,1012.22
2018-07-24T02:37:55.458Z,1012.25
2018-07-24T02:38:55.526Z,1012.25
2018-07-24T02:39:55.590Z,1012.23
2018-07-24T02:40:55.663Z,1012.24
2018-07-24T02:41:55.731Z,1012.24
2018-07-24T02:42:55.799Z,1012.24
2018-07-24T02:43:55.859Z,1012.23
2018-07-24T02:44:55.922Z,1012.22
2018-07-24T02:45:55.994Z,1012.22
2018-07-24T02:46:56.058Z,1012.21
2018-07-24T02:47:56.127Z,1012.21
2018-07-24T02:48:56.186Z,1012.22
2018-07-24T02:49:56.253Z,1012.23
2018-07-24T02:50:56.472Z,1012.21
2018-07-24T02:51:56.383Z,1012.22
2018-07-24T02:52:56.447Z,1012.20
2018-07-24T02:53:56.515Z,1012.23
2018-07-24T02:54:56.578Z,1012.24
2018-07-24T02:55:56.655Z,1012.20
2018-07-24T02:56:56.720Z,1012.24
2018-07-24T02:57:56.779Z,1012.24
2018-07-24T02:58:56.847Z,1012.25
2018-07-24T02:59:56.907Z,1012.24
2018-07-24T03:00:56.999Z,1012.24
2018-07-24T03:01:57.047Z,1012.21
2018-07-24T03:02:57.108Z,1012.26
2018-07-24T03:03:57.173Z,1012.27
2018-07-24T03:04:57.240Z,1012.24
2018-07-24T03:05:57.348Z,1012.25
2018-07-24T03:06:57.380Z,1012.26
2018-07-24T03:07:57.435Z,1012.23
2018-07-24T03:08:57.503Z,1012.26
2018-07-24T03:09:57.567Z,1012.28
2018-07-24T03:10:57.644Z,1012.28
2018-07-24T03:11:57.748Z,1012.25
2018-07-24T03:12:57.767Z,1012.21
2018-07-24T03:13:57.834Z,1012.24
2018-07-24T03:14:57.900Z,1012.26
2018-07-24T03:15:57.977Z,1012.24
2018-07-24T03:16:58.036Z,1012.23
2018-07-24T03:17:58.096Z,1012.24
2018-07-24T03:18:58.163Z,1012.23
2018-07-24T03:19:58.228Z,1012.21
2018-07-24T03:20:58.448Z,1012.23
2018-07-24T03:21:58.361Z,1012.27
2018-07-24T03:22:58.424Z,1012.25
2018-07-24T03:23:58.503Z,1012.23
2018-07-24T03:24:58.556Z,1012.24
2018-07-24T03:25:58.632Z,1012.19
2018-07-24T03:26:58.696Z,1012.20
2018-07-24T03:27:58.752Z,1012.19
2018-07-24T03:28:58.820Z,1012.20
2018-07-24T03:29:58.884Z,1012.23
2018-07-24T03:30:58.966Z,1012.22
2018-07-24T03:31:59.024Z,1012.18
2018-07-24T03:32:59.084Z,1012.21
2018-07-24T03:33:59.148Z,1012.22
2018-07-24T03:34:59.216Z,1012.22
2018-07-24T03:35:59.596Z,1012.22
2018-07-24T03:36:59.346Z,1012.22
2018-07-24T03:37:59.412Z,1012.21
2018-07-24T03:38:59.476Z,1012.21
2018-07-24T03:39:59.550Z,1012.22
2018-07-24T03:40:59.617Z,1012.22
2018-07-24T03:41:59.681Z,1012.21
2018-07-24T03:42:59.746Z,1012.17
2018-07-24T03:43:59.806Z,1012.23
2018-07-24T03:44:59.879Z,1012.18
2018-07-24T03:45:59.944Z,1012.17
2018-07-24T03:47:00.014Z,1012.18
2018-07-24T03:48:00.070Z,1012.19
2018-07-24T03:49:00.152Z,1012.14
2018-07-24T03:50:00.201Z,1012.25
2018-07-24T03:51:00.281Z,1012.20
2018-07-24T03:52:00.334Z,1012.23
2018-07-24T03:53:00.397Z,1012.18
2018-07-24T03:54:00.469Z,1012.21
2018-07-24T03:55:00.529Z,1012.20
2018-07-24T03:56:00.603Z,1012.23
2018-07-24T03:57:00.673Z,1012.22
2018-07-24T03:58:00.790Z,1012.25
2018-07-24T03:59:00.808Z,1012.25
2018-07-24T04:00:00.857Z,1012.28
2018-07-24T04:01:00.930Z,1012.24
2018-07-24T04:02:00.998Z,1012.30
2018-07-24T04:03:01.058Z,1012.27
2018-07-24T04:04:01.121Z,1012.27
2018-07-24T04:05:01.185Z,1012.22
2018-07-24T04:06:01.569Z,1012.22
2018-07-24T04:07:01.318Z,1012.24
2018-07-24T04:08:01.386Z,1012.22
2018-07-24T04:09:01.450Z,1012.26
2018-07-24T04:10:01.520Z,1012.24
2018-07-24T04:11:01.590Z,1012.27
2018-07-24T04:12:01.660Z,1012.26
2018-07-24T04:13:01.715Z,1012.27
2018-07-24T04:14:01.777Z,1012.28
2018-07-24T04:15:01.846Z,1012.30
2018-07-24T04:16:01.918Z,1012.29
2018-07-24T04:17:01.986Z,1012.28
2018-07-24T04:18:02.046Z,1012.29
2018-07-24T04:19:02.106Z,1012.30
2018-07-24T04:20:02.178Z,1012.26
2018-07-24T04:21:02.515Z,1012.26
2018-07-24T04:22:02.306Z,1012.27
2018-07-24T04:23:02.370Z,1012.29
2018-07-24T04:24:02.434Z,1012.28
2018-07-24T04:25:02.506Z,1012.28
2018-07-24T04:26:02.574Z,1012.25
2018-07-24T04:27:02.647Z,1012.29
2018-07-24T04:28:02.701Z,1012.30
2018-07-24T04:29:02.766Z,1012.25
2018-07-24T04:30:02.831Z,1012.26
2018-07-24T04:31:02.905Z,1012.28
2018-07-24T04:32:02.971Z,1012.29
2018-07-24T04:33:03.030Z,1012.28
2018-07-24T04:34:03.095Z,1012.26
2018-07-24T04:35:03.162Z,1012.29
2018-07-24T04:36:03.243Z,1012.28
2018-07-24T04:37:03.286Z,1012.26
2018-07-24T04:38:03.358Z,1012.24
2018-07-24T04:39:03.423Z,1012.26
2018-07-24T04:40:03.516Z,1012.24
2018-07-24T04:41:03.560Z,1012.25
2018-07-24T04:42:03.627Z,1012.21
2018-07-24T04:43:03.687Z,1012.22
2018-07-24T04:44:03.755Z,1012.23
2018-07-24T04:45:03.826Z,1012.20
2018-07-24T04:46:03.890Z,1012.25
2018-07-24T04:47:03.959Z,1012.24
2018-07-24T04:48:04.019Z,1012.22
2018-07-24T04:49:04.088Z,1012.20
2018-07-24T04:50:04.151Z,1012.21
2018-07-24T04:51:04.239Z,1012.20
2018-07-24T04:52:04.278Z,1012.21
2018-07-24T04:53:04.347Z,1012.22
2018-07-24T04:54:04.411Z,1012.22
2018-07-24T04:55:04.483Z,1012.22
2018-07-24T04:56:04.551Z,1012.27
2018-07-24T04:57:04.622Z,1012.26
2018-07-24T04:58:04.675Z,1012.26
2018-07-24T04:59:04.743Z,1012.26
2018-07-24T05:00:04.807Z,1012.28
2018-07-24T05:01:04.883Z,1012.29
2018-07-24T05:02:04.951Z,1012.26
2018-07-24T05:03:05.007Z,1012.29
2018-07-24T05:04:05.071Z,1012.25
2018-07-24T05:05:05.143Z,1012.26
2018-07-24T05:06:05.220Z,1012.26
2018-07-24T05:07:05.312Z,1012.25
2018-07-24T05:08:05.347Z,1012.25
2018-07-24T05:09:05.404Z,1012.27
2018-07-24T05:10:05.472Z,1012.29
2018-07-24T05:11:05.544Z,1012.29
2018-07-24T05:12:05.608Z,1012.28
2018-07-24T05:13:05.668Z,1012.29
2018-07-24T05:14:05.735Z,1012.28
2018-07-24T05:15:05.800Z,1012.29
2018-07-24T05:16:05.872Z,1012.29
2018-07-24T05:17:05.940Z,1012.30
2018-07-24T05:18:06.000Z,1012.31
2018-07-24T05:19:06.064Z,1012.29
2018-07-24T05:20:06.132Z,1012.31
2018-07-24T05:21:06.212Z,1012.31
2018-07-24T05:22:06.264Z,1012.32
2018-07-24T05:23:06.340Z,1012.33
2018-07-24T05:24:06.396Z,1012.29
2018-07-24T05:25:06.464Z,1012.31
2018-07-24T05:26:06.546Z,1012.31
2018-07-24T05:27:06.604Z,1012.31
2018-07-24T05:28:06.656Z,1012.28
2018-07-24T05:29:06.728Z,1012.31
2018-07-24T05:30:06.792Z,1012.31
2018-07-24T05:31:06.868Z,1012.32
2018-07-24T05:32:06.932Z,1012.35
2018-07-24T05:33:07.013Z,1012.31
2018-07-24T05:34:07.060Z,1012.35
2018-07-24T05:35:07.124Z,1012.35
2018-07-24T05:36:07.204Z,1012.33
2018-07-24T05:37:07.257Z,1012.35
2018-07-24T05:38:07.324Z,1012.26
2018-07-24T05:39:07.393Z,1012.28
2018-07-24T05:40:07.457Z,1012.30
2018-07-24T05:41:07.533Z,1012.30
2018-07-24T05:42:07.597Z,1012.30
2018-07-24T05:43:07.663Z,1012.31
2018-07-24T05:44:07.728Z,1012.35
2018-07-24T05:45:07.796Z,1012.36
2018-07-24T05:46:07.892Z,1012.33
2018-07-24T05:47:07.945Z,1012.33
2018-07-24T05:48:07.993Z,1012.33
2018-07-24T05:49:08.061Z,1012.32
2018-07-24T05:50:08.123Z,1012.35
2018-07-24T05:51:08.204Z,1012.32
2018-07-24T05:52:08.253Z,1012.32
2018-07-24T05:53:08.321Z,1012.29
2018-07-24T05:54:08.397Z,1012.33
2018-07-24T05:55:08.511Z,1012.32
2018-07-24T05:56:08.531Z,1012.33
2018-07-24T05:57:08.593Z,1012.31
2018-07-24T05:58:08.653Z,1012.32
2018-07-24T05:59:08.721Z,1012.32
2018-07-24T06:00:08.793Z,1012.36
2018-07-24T06:01:08.861Z,1012.33
2018-07-24T06:02:08.930Z,1012.34
2018-07-24T06:03:08.990Z,1012.34
2018-07-24T06:04:09.053Z,1012.38
2018-07-24T06:05:09.122Z,1012.38
2018-07-24T06:06:09.294Z,1012.32
2018-07-24T06:07:09.258Z,1012.36
2018-07-24T06:08:09.322Z,1012.34
2018-07-24T06:09:09.391Z,1012.33
2018-07-24T06:10:09.452Z,1012.37
2018-07-24T06:11:09.580Z,1012.34
2018-07-24T06:12:09.594Z,1012.32
2018-07-24T06:13:09.668Z,1012.34
2018-07-24T06:14:09.721Z,1012.31
2018-07-24T06:15:09.794Z,1012.35
2018-07-24T06:16:09.866Z,1012.32
2018-07-24T06:17:09.931Z,1012.35
2018-07-24T06:18:09.998Z,1012.36
2018-07-24T06:19:10.058Z,1012.36
2018-07-24T06:20:10.123Z,1012.34
2018-07-24T06:21:10.210Z,1012.37
2018-07-24T06:22:10.258Z,1012.37
2018-07-24T06:23:10.329Z,1012.34
2018-07-24T06:24:10.394Z,1012.33
2018-07-24T06:25:10.462Z,1012.36
2018-07-24T06:26:10.534Z,1012.35
2018-07-24T06:27:10.598Z,1012.36
2018-07-24T06:28:10.658Z,1012.37
2018-07-24T06:29:10.730Z,1012.33
2018-07-24T06:30:10.795Z,1012.33
2018-07-24T06:31:10.866Z,1012.34
2018-07-24T06:32:10.934Z,1012.38
2018-07-24T06:33:10.994Z,1012.49
2018-07-24T06:34:11.062Z,1013.05
2018-07-24T06:35:11.131Z,1013.65
2018-07-24T06:36:11.211Z,1014.04
2018-07-24T06:37:11.267Z,1013.98
2018-07-24T06:38:11.338Z,1013.98
2018-07-24T06:39:11.406Z,1013.87
2018-07-24T06:40:11.475Z,1013.92
2018-07-24T06:41:11.551Z,1013.92
2018-07-24T06:42:11.622Z,1013.96
2018-07-24T06:43:11.686Z,1013.94
2018-07-24T06:44:11.821Z,1013.98
2018-07-24T06:45:11.831Z,1014.01
2018-07-24T06:46:11.927Z,1014.06
2018-07-24T06:47:12.003Z,1014.14
2018-07-24T06:48:12.058Z,1014.20
2018-07-24T06:49:12.139Z,1014.24
2018-07-24T06:50:12.203Z,1014.32
2018-07-24T06:51:12.323Z,1014.44
2018-07-24T06:52:12.350Z,1014.51
2018-07-24T06:53:12.427Z,1014.63
2018-07-24T06:54:12.533Z,1014.70
2018-07-24T06:55:12.605Z,1014.84
2018-07-24T06:56:12.666Z,1014.92
2018-07-24T06:57:12.742Z,1015.03
2018-07-24T06:58:12.827Z,1015.11
2018-07-24T06:59:12.895Z,1015.21
2018-07-24T07:00:12.975Z,1015.32
2018-07-24T07:01:13.054Z,1015.49
2018-07-24T07:02:13.230Z,1015.61
2018-07-24T07:03:13.207Z,1015.57
2018-07-24T07:04:13.302Z,1015.50
2018-07-24T07:05:13.388Z,1015.34
2018-07-24T07:06:13.455Z,1015.11
2018-07-24T07:07:13.539Z,1014.88
2018-07-24T07:08:13.603Z,1014.67
2018-07-24T07:09:13.690Z,1014.53
2018-07-24T07:10:13.811Z,1014.33
2018-07-24T07:11:13.851Z,1014.15
2018-07-24T07:12:13.930Z,1014.16
2018-07-24T07:13:14.044Z,1014.01
2018-07-24T07:14:14.090Z,1013.90
2018-07-24T07:15:14.163Z,1013.83
2018-07-24T07:16:14.277Z,1013.77
2018-07-24T07:17:14.323Z,1013.78
2018-07-24T07:18:14.408Z,1013.73
2018-07-24T07:19:14.491Z,1013.74
2018-07-24T07:20:14.567Z,1013.66
2018-07-24T07:21:14.655Z,1013.65
2018-07-24T07:22:14.735Z,1013.63
2018-07-24T07:23:14.820Z,1013.63
2018-07-24T07:24:14.891Z,1013.61
2018-07-24T07:25:14.975Z,1013.64
2018-07-24T07:26:15.096Z,1013.63
2018-07-24T07:27:15.157Z,1013.65
2018-07-24T07:28:15.219Z,1013.66
2018-07-24T07:29:15.363Z,1013.68
2018-07-24T07:30:15.385Z,1013.66
2018-07-24T07:31:15.471Z,1013.62
2018-07-24T07:32:15.605Z,1013.60
2018-07-24T07:33:15.628Z,1013.60
2018-07-24T07:34:15.707Z,1013.60
2018-07-24T07:35:15.792Z,1013.65
2018-07-24T07:36:15.890Z,1013.66
2018-07-24T07:37:15.960Z,1013.65
2018-07-24T07:38:16.040Z,1013.57
2018-07-24T07:39:16.209Z,1013.54
2018-07-24T07:40:16.200Z,1013.42
2018-07-24T07:41:16.396Z,1013.37
2018-07-24T07:42:16.364Z,1013.34
2018-07-24T07:43:16.444Z,1013.31
2018-07-24T07:44:16.536Z,1013.28
2018-07-24T07:45:16.640Z,1013.23
2018-07-24T07:46:16.704Z,1013.20
2018-07-24T07:47:16.792Z,1013.18
2018-07-24T07:48:16.856Z,1013.16
2018-07-24T07:49:16.936Z,1013.16
2018-07-24T07:50:17.025Z,1013.14
2018-07-24T07:51:17.256Z,1013.12
2018-07-24T07:52:17.188Z,1013.13
2018-07-24T07:53:17.269Z,1013.10
2018-07-24T07:54:17.348Z,1013.08
2018-07-24T07:55:17.433Z,1013.05
2018-07-24T07:56:17.520Z,1013.04
2018-07-24T07:57:17.621Z,1013.07
2018-07-24T07:58:17.944Z,1013.06
2018-07-24T07:59:17.761Z,1013.03
2018-07-24T08:00:17.845Z,1012.99
2018-07-24T08:01:17.932Z,1013.05
2018-07-24T08:02:18.017Z,1013.03
2018-07-24T08:03:18.106Z,1013.04
2018-07-24T08:04:18.281Z,1013.04
2018-07-24T08:05:18.257Z,1013.04
2018-07-24T08:06:18.495Z,1013.06
2018-07-24T08:07:18.421Z,1013.08
2018-07-24T08:08:18.519Z,1013.06
2018-07-24T08:09:18.585Z,1013.05
2018-07-24T08:10:18.673Z,1013.04
2018-07-24T08:11:18.757Z,1013.04
2018-07-24T08:12:18.880Z,1013.04
2018-07-24T08:13:18.916Z,1013.02
2018-07-24T08:14:18.998Z,1013.04
2018-07-24T08:15:19.086Z,1013.04
2018-07-24T08:16:19.314Z,1013.03
2018-07-24T08:17:19.245Z,1013.06
2018-07-24T08:18:19.325Z,1013.05
2018-07-24T08:19:19.410Z,1013.01
2018-07-24T08:20:19.490Z,1013.03
2018-07-24T08:21:19.578Z,1013.05
2018-07-24T08:22:19.708Z,1013.05
2018-07-24T08:23:19.738Z,1013.02
2018-07-24T08:24:19.818Z,1013.01
2018-07-24T08:25:19.906Z,1013.02
2018-07-24T08:26:19.990Z,1013.01
2018-07-24T08:27:20.078Z,1013.04
2018-07-24T08:28:20.147Z,1013.07
2018-07-24T08:29:20.230Z,1013.11
2018-07-24T08:30:20.315Z,1013.06
2018-07-24T08:31:20.402Z,1013.05
2018-07-24T08:32:20.483Z,1013.03
2018-07-24T08:33:20.562Z,1013.04
2018-07-24T08:34:20.642Z,1013.03
2018-07-24T08:35:20.727Z,1013.04
2018-07-24T08:36:20.810Z,1013.07
2018-07-24T08:37:20.895Z,1013.03
2018-07-24T08:38:20.970Z,1013.03
2018-07-24T08:39:21.050Z,1013.05
2018-07-24T08:40:21.140Z,1013.29
2018-07-24T08:41:21.463Z,1013.79
2018-07-24T08:42:21.299Z,1014.15
2018-07-24T08:43:21.379Z,1014.36
2018-07-24T08:44:21.463Z,1013.97
2018-07-24T08:45:21.543Z,1013.20
2018-07-24T08:46:21.635Z,1012.94
2018-07-24T08:47:21.720Z,1012.91
2018-07-24T08:48:21.795Z,1012.92
2018-07-24T08:49:21.881Z,1012.96
2018-07-24T08:50:21.964Z,1012.91
2018-07-24T08:51:22.051Z,1012.78
2018-07-24T08:52:22.175Z,1012.56
2018-07-24T08:53:22.440Z,1012.55
2018-07-24T08:54:22.455Z,1012.53
2018-07-24T08:55:22.719Z,1012.51
2018-07-24T08:56:22.579Z,1012.47
2018-07-24T08:57:22.540Z,1012.48
2018-07-24T08:58:22.620Z,1012.46
2018-07-24T08:59:22.704Z,1012.44
2018-07-24T09:00:22.784Z,1012.46
2018-07-24T09:01:22.884Z,1012.40
2018-07-24T09:02:22.967Z,1012.46
2018-07-24T09:03:23.039Z,1012.41
2018-07-24T09:04:23.114Z,1012.42
2018-07-24T09:05:23.196Z,1012.41
2018-07-24T09:06:23.428Z,1012.41
2018-07-24T09:07:23.363Z,1012.41
2018-07-24T09:08:23.448Z,1012.38
2018-07-24T09:09:23.520Z,1012.38
2018-07-24T09:10:23.608Z,1012.34
2018-07-24T09:11:23.692Z,1012.39
2018-07-24T09:12:23.772Z,1012.36
2018-07-24T09:13:23.844Z,1012.33
2018-07-24T09:14:23.940Z,1012.35
2018-07-24T09:15:24.054Z,1012.30
2018-07-24T09:16:24.092Z,1012.29
2018-07-24T09:17:24.184Z,1012.29
2018-07-24T09:18:24.252Z,1012.26
2018-07-24T09:19:24.334Z,1012.29
2018-07-24T09:20:24.408Z,1012.29
2018-07-24T09:21:24.498Z,1012.30
2018-07-24T09:22:24.591Z,1012.29
2018-07-24T09:23:24.660Z,1012.27
2018-07-24T09:24:24.739Z,1012.29
2018-07-24T09:25:24.816Z,1012.29
2018-07-24T09:26:24.896Z,1012.31
2018-07-24T09:27:24.984Z,1012.27
2018-07-24T09:28:25.060Z,1012.24
2018-07-24T09:29:25.137Z,1012.22
2018-07-24T09:30:25.221Z,1012.20
2018-07-24T09:31:25.301Z,1012.22
2018-07-24T09:32:25.381Z,1012.22
2018-07-24T09:33:25.618Z,1012.18
2018-07-24T09:34:25.544Z,1012.19
2018-07-24T09:35:25.616Z,1012.19
2018-07-24T09:36:25.697Z,1012.20
2018-07-24T09:37:25.777Z,1012.20
2018-07-24T09:38:25.864Z,1012.21
2018-07-24T09:39:25.945Z,1012.18
2018-07-24T09:40:26.039Z,1012.16
2018-07-24T09:41:26.099Z,1012.13
2018-07-24T09:42:26.177Z,1012.13
2018-07-24T09:43:26.273Z,1012.17
2018-07-24T09:44:26.333Z,1012.14
2018-07-24T09:45:26.413Z,1012.11
2018-07-24T09:46:26.501Z,1012.11
2018-07-24T09:47:26.578Z,1012.13
2018-07-24T09:48:26.658Z,1012.12
2018-07-24T09:49:26.737Z,1012.19
2018-07-24T09:50:26.849Z,1012.14
2018-07-24T09:51:26.905Z,1012.11
2018-07-24T09:52:26.979Z,1012.10
2018-07-24T09:53:27.054Z,1012.08
2018-07-24T09:54:27.136Z,1012.09
2018-07-24T09:55:27.206Z,1012.04
2018-07-24T09:56:27.309Z,1012.04
2018-07-24T09:57:27.362Z,1012.03
2018-07-24T09:58:27.465Z,1011.98
2018-07-24T09:59:27.602Z,1011.97
2018-07-24T10:00:27.597Z,1011.98
2018-07-24T10:01:27.677Z,1011.93
2018-07-24T10:02:27.758Z,1011.90
2018-07-24T10:03:27.842Z,1011.91
2018-07-24T10:04:27.922Z,1011.92
2018-07-24T10:05:28.077Z,1011.94
2018-07-24T10:06:28.074Z,1011.89
2018-07-24T10:07:28.149Z,1011.84
2018-07-24T10:08:28.230Z,1011.79
2018-07-24T10:09:28.466Z,1011.78
2018-07-24T10:10:28.385Z,1011.76
2018-07-24T10:11:28.462Z,1011.76
2018-07-24T10:12:28.542Z,1011.78
2018-07-24T10:13:28.639Z,1011.70
2018-07-24T10:14:28.702Z,1011.70
2018-07-24T10:15:28.798Z,1011.73
2018-07-24T10:16:28.886Z,1011.72
2018-07-24T10:17:28.930Z,1011.72
2018-07-24T10:18:29.010Z,1011.68
2018-07-24T10:19:29.102Z,1011.66
2018-07-24T10:20:29.162Z,1011.63
2018-07-24T10:21:29.242Z,1011.61
2018-07-24T10:22:29.322Z,1011.59
2018-07-24T10:23:29.398Z,1011.59
2018-07-24T10:24:29.546Z,1011.55
2018-07-24T10:25:29.559Z,1011.52
2018-07-24T10:26:29.630Z,1011.54
2018-07-24T10:27:29.706Z,1011.50
2018-07-24T10:28:29.787Z,1011.52
2018-07-24T10:29:29.875Z,1011.53
2018-07-24T10:30:30.035Z,1011.55
2018-07-24T10:31:30.019Z,1011.52
2018-07-24T10:32:30.091Z,1011.55
2018-07-24T10:33:30.171Z,1011.51
2018-07-24T10:34:30.271Z,1011.52
2018-07-24T10:35:30.346Z,1011.49
2018-07-24T10:36:30.453Z,1011.52
2018-07-24T10:37:30.479Z,1011.48
2018-07-24T10:38:30.554Z,1011.42
2018-07-24T10:39:30.639Z,1011.43
2018-07-24T10:40:30.715Z,1011.41
2018-07-24T10:41:30.787Z,1011.40
2018-07-24T10:42:30.864Z,1011.38
2018-07-24T10:43:30.940Z,1011.37
2018-07-24T10:44:31.019Z,1011.32
2018-07-24T10:45:31.095Z,1011.33
2018-07-24T10:46:31.167Z,1011.41
2018-07-24T10:47:31.243Z,1011.40
2018-07-24T10:48:31.319Z,1011.40
2018-07-24T10:49:31.406Z,1011.40
2018-07-24T10:50:31.479Z,1011.39
2018-07-24T10:51:31.552Z,1011.36
2018-07-24T10:52:31.623Z,1011.31
2018-07-24T10:53:31.703Z,1011.30
2018-07-24T10:54:31.784Z,1011.25
2018-07-24T10:55:31.875Z,1011.24
2018-07-24T10:56:31.927Z,1011.26
2018-07-24T10:57:32.004Z,1011.28
2018-07-24T10:58:32.082Z,1011.24
2018-07-24T10:59:32.180Z,1011.21
2018-07-24T11:00:32.231Z,1011.22
2018-07-24T11:01:32.307Z,1011.19
2018-07-24T11:02:32.388Z,1011.17
2018-07-24T11:03:32.464Z,1011.19
2018-07-24T11:04:32.542Z,1011.18
2018-07-24T11:05:32.631Z,1011.15
2018-07-24T11:06:32.687Z,1011.19
2018-07-24T11:07:32.763Z,1011.15
2018-07-24T11:08:32.839Z,1011.16
2018-07-24T11:09:32.928Z,1011.20
2018-07-24T11:10:32.996Z,1011.19
2018-07-24T11:11:33.066Z,1011.16
2018-07-24T11:12:33.136Z,1011.17
2018-07-24T11:13:33.215Z,1011.16
2018-07-24T11:14:33.319Z,1011.23
2018-07-24T11:15:33.364Z,1011.21
2018-07-24T11:16:33.491Z,1011.15
2018-07-24T11:17:33.511Z,1011.19
2018-07-24T11:18:33.592Z,1011.16
2018-07-24T11:19:33.672Z,1011.15
2018-07-24T11:20:33.748Z,1011.17
2018-07-24T11:21:33.815Z,1011.11
2018-07-24T11:22:34.004Z,1011.12
2018-07-24T11:23:33.972Z,1011.08
2018-07-24T11:24:34.052Z,1011.09
2018-07-24T11:25:34.126Z,1011.07
2018-07-24T11:26:34.196Z,1011.01
2018-07-24T11:27:34.265Z,1011.07
2018-07-24T11:28:34.347Z,1011.08
2018-07-24T11:29:34.528Z,1011.09
2018-07-24T11:30:34.492Z,1011.06
2018-07-24T11:31:34.564Z,1010.99
2018-07-24T11:32:34.640Z,1011.05
2018-07-24T11:33:34.727Z,1011.01
2018-07-24T11:34:34.800Z,1011.01
2018-07-24T11:35:34.959Z,1011.00
2018-07-24T11:36:34.944Z,1011.02
2018-07-24T11:37:35.021Z,1011.02
2018-07-24T11:38:35.158Z,1011.05
2018-07-24T11:39:35.204Z,1011.02
2018-07-24T11:40:35.244Z,1010.98
2018-07-24T11:41:35.324Z,1011.02
2018-07-24T11:42:35.392Z,1011.00
2018-07-24T11:43:35.469Z,1010.97
2018-07-24T11:44:35.565Z,1010.98
2018-07-24T11:45:35.629Z,1010.96
2018-07-24T11:46:35.749Z,1010.97
2018-07-24T11:47:35.772Z,1010.98
2018-07-24T11:48:35.869Z,1011.00
2018-07-24T11:49:35.933Z,1011.04
2018-07-24T11:50:36.007Z,1010.92
2018-07-24T11:51:36.137Z,1011.04
2018-07-24T11:52:36.153Z,1010.98
2018-07-24T11:53:36.227Z,1010.95
2018-07-24T11:54:36.310Z,1010.91
2018-07-24T11:55:36.369Z,1010.89
2018-07-24T11:56:36.445Z,1010.84
2018-07-24T11:57:36.530Z,1010.88
2018-07-24T11:58:36.601Z,1010.86
2018-07-24T11:59:36.681Z,1010.83
2018-07-24T12:00:36.753Z,1010.82
2018-07-24T12:01:36.821Z,1010.87
2018-07-24T12:02:36.897Z,1010.88
2018-07-24T12:03:37.008Z,1010.84
2018-07-24T12:04:37.054Z,1010.84
2018-07-24T12:05:37.133Z,1010.86
2018-07-24T12:06:37.198Z,1010.83